sensor_id;sensor_type;location;lat;lon;timestamp;temperature;humidity
780;DHT22;373;49.342;8.146;2023-04-01T00:00:37;11.40;84.20
780;DHT22;373;49.342;8.146;2023-04-01T00:03:04;11.40;99.90
780;DHT22;373;49.342;8.146;2023-04-01T00:05:31;11.50;47.70
780;DHT22;373;49.342;8.146;2023-04-01T00:07:58;11.50;99.90
780;DHT22;373;49.342;8.146;2023-04-01T00:10:26;11.40;1.00
780;DHT22;373;49.342;8.146;2023-04-01T00:12:54;11.50;85.50
780;DHT22;373;49.342;8.146;2023-04-01T00:15:22;11.50;1.00
780;DHT22;373;49.342;8.146;2023-04-01T00:17:49;11.50;99.90
780;DHT22;373;49.342;8.146;2023-04-01T00:20:16;11.50;99.90
780;DHT22;373;49.342;8.146;2023-04-01T00:22:43;11.50;99.90
780;DHT22;373;49.342;8.146;2023-04-01T00:25:10;11.50;99.90
780;DHT22;373;49.342;8.146;2023-04-01T00:27:37;11.40;1.00
780;DHT22;373;49.342;8.146;2023-04-01T00:30:07;11.30;1.00
780;DHT22;373;49.342;8.146;2023-04-01T00:32:35;11.30;1.00
780;DHT22;373;49.342;8.146;2023-04-01T00:35:02;11.40;1.00
780;DHT22;373;49.342;8.146;2023-04-01T00:37:30;11.40;99.90
780;DHT22;373;49.342;8.146;2023-04-01T00:39:57;11.40;50.20
780;DHT22;373;49.342;8.146;2023-04-01T00:42:24;11.40;99.90
780;DHT22;373;49.342;8.146;2023-04-01T00:44:53;11.30;1.00
780;DHT22;373;49.342;8.146;2023-04-01T00:47:22;11.30;99.90
780;DHT22;373;49.342;8.146;2023-04-01T00:49:51;11.20;1.00
780;DHT22;373;49.342;8.146;2023-04-01T00:52:23;11.30;92.10
780;DHT22;373;49.342;8.146;2023-04-01T00:54:55;11.30;1.00
780;DHT22;373;49.342;8.146;2023-04-01T00:57:27;11.50;1.00
780;DHT22;373;49.342;8.146;2023-04-01T00:59:56;11.20;99.90
780;DHT22;373;49.342;8.146;2023-04-01T01:02:26;11.20;1.00
780;DHT22;373;49.342;8.146;2023-04-01T01:04:53;11.30;99.90
780;DHT22;373;49.342;8.146;2023-04-01T01:07:24;11.20;1.00
780;DHT22;373;49.342;8.146;2023-04-01T01:09:59;11.30;99.90
780;DHT22;373;49.342;8.146;2023-04-01T01:12:31;11.30;1.00
780;DHT22;373;49.342;8.146;2023-04-01T01:15:08;11.30;1.00
780;DHT22;373;49.342;8.146;2023-04-01T01:17:46;11.30;99.90
780;DHT22;373;49.342;8.146;2023-04-01T01:20:42;11.40;1.00
780;DHT22;373;49.342;8.146;2023-04-01T01:23:46;11.30;99.90
780;DHT22;373;49.342;8.146;2023-04-01T01:26:38;11.30;99.90
780;DHT22;373;49.342;8.146;2023-04-01T01:31:50;11.30;1.00
780;DHT22;373;49.342;8.146;2023-04-01T01:34:22;11.20;47.60
780;DHT22;373;49.342;8.146;2023-04-01T01:37:00;11.20;99.90
780;DHT22;373;49.342;8.146;2023-04-01T01:39:31;11.30;99.90
780;DHT22;373;49.342;8.146;2023-04-01T01:42:03;11.30;76.70
780;DHT22;373;49.342;8.146;2023-04-01T01:44:32;11.20;1.00
780;DHT22;373;49.342;8.146;2023-04-01T01:47:00;11.20;1.00
780;DHT22;373;49.342;8.146;2023-04-01T01:49:28;11.20;1.00
780;DHT22;373;49.342;8.146;2023-04-01T01:51:59;11.20;99.90
780;DHT22;373;49.342;8.146;2023-04-01T01:54:26;11.00;68.00
780;DHT22;373;49.342;8.146;2023-04-01T01:57:01;10.90;1.00
780;DHT22;373;49.342;8.146;2023-04-01T01:59:33;10.90;99.90
780;DHT22;373;49.342;8.146;2023-04-01T02:02:02;11.00;99.90
780;DHT22;373;49.342;8.146;2023-04-01T02:04:34;11.00;1.00
780;DHT22;373;49.342;8.146;2023-04-01T02:07:05;11.10;75.90
780;DHT22;373;49.342;8.146;2023-04-01T02:09:34;11.10;1.00
780;DHT22;373;49.342;8.146;2023-04-01T02:12:05;11.00;99.90
780;DHT22;373;49.342;8.146;2023-04-01T02:14:41;11.00;99.90
780;DHT22;373;49.342;8.146;2023-04-01T02:17:12;10.90;1.00
780;DHT22;373;49.342;8.146;2023-04-01T02:19:43;10.90;99.90
780;DHT22;373;49.342;8.146;2023-04-01T02:22:18;10.80;99.90
780;DHT22;373;49.342;8.146;2023-04-01T02:24:49;10.70;1.00
780;DHT22;373;49.342;8.146;2023-04-01T02:27:17;10.60;1.00
780;DHT22;373;49.342;8.146;2023-04-01T02:29:44;10.60;1.00
780;DHT22;373;49.342;8.146;2023-04-01T02:32:13;10.60;1.00
780;DHT22;373;49.342;8.146;2023-04-01T02:34:42;10.50;1.00
780;DHT22;373;49.342;8.146;2023-04-01T02:37:10;10.50;1.00
780;DHT22;373;49.342;8.146;2023-04-01T02:39:39;10.50;1.00
780;DHT22;373;49.342;8.146;2023-04-01T02:42:08;10.50;1.00
780;DHT22;373;49.342;8.146;2023-04-01T02:44:36;10.40;1.00
780;DHT22;373;49.342;8.146;2023-04-01T02:47:03;10.40;1.00
780;DHT22;373;49.342;8.146;2023-04-01T02:49:30;10.40;1.00
780;DHT22;373;49.342;8.146;2023-04-01T02:51:57;10.40;1.00
780;DHT22;373;49.342;8.146;2023-04-01T02:54:24;10.40;1.00
780;DHT22;373;49.342;8.146;2023-04-01T02:56:52;10.40;1.00
780;DHT22;373;49.342;8.146;2023-04-01T02:59:20;10.30;1.00
780;DHT22;373;49.342;8.146;2023-04-01T03:01:47;10.40;1.00
780;DHT22;373;49.342;8.146;2023-04-01T03:04:14;10.40;1.00
780;DHT22;373;49.342;8.146;2023-04-01T03:06:41;10.40;1.00
780;DHT22;373;49.342;8.146;2023-04-01T03:09:08;10.40;1.00
780;DHT22;373;49.342;8.146;2023-04-01T03:11:35;10.30;1.00
780;DHT22;373;49.342;8.146;2023-04-01T03:14:03;10.30;1.00
780;DHT22;373;49.342;8.146;2023-04-01T03:16:30;10.30;1.00
780;DHT22;373;49.342;8.146;2023-04-01T03:18:57;10.50;1.00
780;DHT22;373;49.342;8.146;2023-04-01T03:21:27;10.50;1.00
780;DHT22;373;49.342;8.146;2023-04-01T03:23:54;10.50;1.00
780;DHT22;373;49.342;8.146;2023-04-01T03:26:21;10.50;1.00
780;DHT22;373;49.342;8.146;2023-04-01T03:28:48;10.50;1.00
780;DHT22;373;49.342;8.146;2023-04-01T03:31:17;10.40;1.00
780;DHT22;373;49.342;8.146;2023-04-01T03:33:50;10.30;1.00
780;DHT22;373;49.342;8.146;2023-04-01T03:36:17;10.30;1.00
780;DHT22;373;49.342;8.146;2023-04-01T03:38:46;10.50;1.00
780;DHT22;373;49.342;8.146;2023-04-01T03:41:18;10.50;1.00
780;DHT22;373;49.342;8.146;2023-04-01T03:43:46;10.40;1.00
780;DHT22;373;49.342;8.146;2023-04-01T03:46:18;10.40;1.00
780;DHT22;373;49.342;8.146;2023-04-01T03:48:46;10.40;1.00
780;DHT22;373;49.342;8.146;2023-04-01T03:51:13;10.50;1.00
780;DHT22;373;49.342;8.146;2023-04-01T03:53:41;10.50;1.00
780;DHT22;373;49.342;8.146;2023-04-01T03:56:08;10.50;1.00
780;DHT22;373;49.342;8.146;2023-04-01T03:58:36;10.50;1.00
780;DHT22;373;49.342;8.146;2023-04-01T04:01:14;10.50;1.00
780;DHT22;373;49.342;8.146;2023-04-01T04:03:42;10.50;1.00
780;DHT22;373;49.342;8.146;2023-04-01T04:06:12;10.50;1.00
780;DHT22;373;49.342;8.146;2023-04-01T04:08:39;10.50;1.00
780;DHT22;373;49.342;8.146;2023-04-01T04:11:06;10.50;1.00
780;DHT22;373;49.342;8.146;2023-04-01T04:13:40;10.50;1.00
780;DHT22;373;49.342;8.146;2023-04-01T04:16:08;10.50;1.00
780;DHT22;373;49.342;8.146;2023-04-01T04:18:38;10.50;1.00
780;DHT22;373;49.342;8.146;2023-04-01T04:21:07;10.40;1.00
780;DHT22;373;49.342;8.146;2023-04-01T04:23:34;10.50;1.00
780;DHT22;373;49.342;8.146;2023-04-01T04:26:05;10.60;1.00
780;DHT22;373;49.342;8.146;2023-04-01T04:28:33;10.50;99.90
780;DHT22;373;49.342;8.146;2023-04-01T04:31:01;10.50;1.00
780;DHT22;373;49.342;8.146;2023-04-01T04:33:31;10.50;1.00
780;DHT22;373;49.342;8.146;2023-04-01T04:35:59;10.40;1.00
780;DHT22;373;49.342;8.146;2023-04-01T04:38:27;10.50;1.00
780;DHT22;373;49.342;8.146;2023-04-01T04:40:55;10.50;1.00
780;DHT22;373;49.342;8.146;2023-04-01T04:43:22;10.40;1.00
780;DHT22;373;49.342;8.146;2023-04-01T04:45:50;10.50;1.00
780;DHT22;373;49.342;8.146;2023-04-01T04:48:17;10.40;1.00
780;DHT22;373;49.342;8.146;2023-04-01T04:50:46;10.30;1.00
780;DHT22;373;49.342;8.146;2023-04-01T04:53:16;10.50;1.00
780;DHT22;373;49.342;8.146;2023-04-01T04:55:45;10.30;1.00
780;DHT22;373;49.342;8.146;2023-04-01T04:58:35;10.30;1.00
780;DHT22;373;49.342;8.146;2023-04-01T05:01:06;10.40;1.00
780;DHT22;373;49.342;8.146;2023-04-01T05:03:34;10.30;1.00
780;DHT22;373;49.342;8.146;2023-04-01T05:06:01;10.20;1.00
780;DHT22;373;49.342;8.146;2023-04-01T05:08:29;10.20;1.00
780;DHT22;373;49.342;8.146;2023-04-01T05:10:57;10.20;1.00
780;DHT22;373;49.342;8.146;2023-04-01T05:13:25;10.20;1.00
780;DHT22;373;49.342;8.146;2023-04-01T05:15:52;10.20;1.00
780;DHT22;373;49.342;8.146;2023-04-01T05:18:19;10.20;1.00
780;DHT22;373;49.342;8.146;2023-04-01T05:20:47;10.20;1.00
780;DHT22;373;49.342;8.146;2023-04-01T05:23:15;10.20;1.00
780;DHT22;373;49.342;8.146;2023-04-01T05:25:44;10.20;1.00
780;DHT22;373;49.342;8.146;2023-04-01T05:28:13;10.20;1.00
780;DHT22;373;49.342;8.146;2023-04-01T05:30:42;10.20;1.00
780;DHT22;373;49.342;8.146;2023-04-01T05:33:20;10.10;1.00
780;DHT22;373;49.342;8.146;2023-04-01T05:35:48;10.10;1.00
780;DHT22;373;49.342;8.146;2023-04-01T05:38:15;10.10;1.00
780;DHT22;373;49.342;8.146;2023-04-01T05:40:42;10.10;1.00
780;DHT22;373;49.342;8.146;2023-04-01T05:43:09;10.00;21.40
780;DHT22;373;49.342;8.146;2023-04-01T05:45:38;10.00;9.00
780;DHT22;373;49.342;8.146;2023-04-01T05:48:11;10.10;20.50
780;DHT22;373;49.342;8.146;2023-04-01T05:50:40;10.10;1.00
780;DHT22;373;49.342;8.146;2023-04-01T05:53:09;10.00;1.00
780;DHT22;373;49.342;8.146;2023-04-01T05:55:39;10.20;1.00
780;DHT22;373;49.342;8.146;2023-04-01T05:58:06;10.10;1.00
780;DHT22;373;49.342;8.146;2023-04-01T06:00:35;10.20;1.00
780;DHT22;373;49.342;8.146;2023-04-01T06:03:03;10.20;1.00
780;DHT22;373;49.342;8.146;2023-04-01T06:05:38;10.10;1.00
780;DHT22;373;49.342;8.146;2023-04-01T06:08:10;10.10;1.00
780;DHT22;373;49.342;8.146;2023-04-01T06:10:46;10.00;1.00
780;DHT22;373;49.342;8.146;2023-04-01T06:13:24;10.00;1.00
780;DHT22;373;49.342;8.146;2023-04-01T06:16:00;10.00;1.00
780;DHT22;373;49.342;8.146;2023-04-01T06:18:53;10.00;1.00
780;DHT22;373;49.342;8.146;2023-04-01T06:21:43;10.10;1.00
780;DHT22;373;49.342;8.146;2023-04-01T06:24:30;10.10;1.00
780;DHT22;373;49.342;8.146;2023-04-01T06:27:05;10.10;1.00
780;DHT22;373;49.342;8.146;2023-04-01T06:29:49;10.10;1.00
780;DHT22;373;49.342;8.146;2023-04-01T06:32:39;10.10;1.00
780;DHT22;373;49.342;8.146;2023-04-01T06:35:19;10.00;1.00
780;DHT22;373;49.342;8.146;2023-04-01T06:38:11;10.00;7.00
780;DHT22;373;49.342;8.146;2023-04-01T06:43:50;10.10;1.00
780;DHT22;373;49.342;8.146;2023-04-01T06:47:01;10.10;1.00
780;DHT22;373;49.342;8.146;2023-04-01T06:49:55;10.30;19.60
780;DHT22;373;49.342;8.146;2023-04-01T06:52:48;10.20;34.70
780;DHT22;373;49.342;8.146;2023-04-01T06:55:39;10.20;33.80
780;DHT22;373;49.342;8.146;2023-04-01T06:58:20;10.20;21.90
780;DHT22;373;49.342;8.146;2023-04-01T07:00:51;10.10;18.80
780;DHT22;373;49.342;8.146;2023-04-01T07:03:23;10.20;28.00
780;DHT22;373;49.342;8.146;2023-04-01T07:05:57;10.20;26.30
780;DHT22;373;49.342;8.146;2023-04-01T07:08:28;10.20;15.30
780;DHT22;373;49.342;8.146;2023-04-01T07:11:00;10.20;20.60
780;DHT22;373;49.342;8.146;2023-04-01T07:14:10;10.40;1.40
780;DHT22;373;49.342;8.146;2023-04-01T07:16:43;10.40;20.60
780;DHT22;373;49.342;8.146;2023-04-01T07:19:16;10.40;4.80
780;DHT22;373;49.342;8.146;2023-04-01T07:21:58;10.20;23.20
780;DHT22;373;49.342;8.146;2023-04-01T07:24:42;10.10;30.90
780;DHT22;373;49.342;8.146;2023-04-01T07:27:11;10.20;8.00
780;DHT22;373;49.342;8.146;2023-04-01T07:29:40;10.30;1.00
780;DHT22;373;49.342;8.146;2023-04-01T07:32:21;10.30;1.90
780;DHT22;373;49.342;8.146;2023-04-01T07:34:58;10.30;1.00
780;DHT22;373;49.342;8.146;2023-04-01T07:37:32;10.50;1.00
780;DHT22;373;49.342;8.146;2023-04-01T07:40:12;10.50;1.00
780;DHT22;373;49.342;8.146;2023-04-01T07:42:57;10.60;1.00
780;DHT22;373;49.342;8.146;2023-04-01T07:45:31;10.60;1.00
780;DHT22;373;49.342;8.146;2023-04-01T07:48:08;10.70;1.90
780;DHT22;373;49.342;8.146;2023-04-01T07:50:43;10.70;1.00
780;DHT22;373;49.342;8.146;2023-04-01T07:53:19;10.80;12.60
780;DHT22;373;49.342;8.146;2023-04-01T07:55:55;10.80;31.30
780;DHT22;373;49.342;8.146;2023-04-01T07:58:32;10.80;40.90
780;DHT22;373;49.342;8.146;2023-04-01T08:01:04;10.80;29.10
780;DHT22;373;49.342;8.146;2023-04-01T08:03:51;10.80;64.40
780;DHT22;373;49.342;8.146;2023-04-01T08:06:28;11.00;68.00
780;DHT22;373;49.342;8.146;2023-04-01T08:09:04;10.90;35.90
780;DHT22;373;49.342;8.146;2023-04-01T08:11:50;10.90;1.00
780;DHT22;373;49.342;8.146;2023-04-01T08:15:08;10.80;44.90
780;DHT22;373;49.342;8.146;2023-04-01T08:18:06;10.70;32.30
780;DHT22;373;49.342;8.146;2023-04-01T08:20:39;10.80;55.40
780;DHT22;373;49.342;8.146;2023-04-01T08:23:14;10.90;82.70
780;DHT22;373;49.342;8.146;2023-04-01T08:25:48;10.90;48.80
780;DHT22;373;49.342;8.146;2023-04-01T08:28:24;10.90;91.60
780;DHT22;373;49.342;8.146;2023-04-01T08:30:55;10.90;54.70
780;DHT22;373;49.342;8.146;2023-04-01T08:33:26;11.00;72.70
780;DHT22;373;49.342;8.146;2023-04-01T08:36:05;11.20;1.00
780;DHT22;373;49.342;8.146;2023-04-01T08:38:38;11.00;4.20
780;DHT22;373;49.342;8.146;2023-04-01T08:41:36;11.10;50.00
780;DHT22;373;49.342;8.146;2023-04-01T08:44:34;11.00;44.80
780;DHT22;373;49.342;8.146;2023-04-01T08:47:16;11.20;96.40
780;DHT22;373;49.342;8.146;2023-04-01T08:50:08;11.40;37.70
780;DHT22;373;49.342;8.146;2023-04-01T08:53:03;11.60;10.20
780;DHT22;373;49.342;8.146;2023-04-01T08:55:54;11.70;1.00
780;DHT22;373;49.342;8.146;2023-04-01T09:07:48;11.90;1.00
780;DHT22;373;49.342;8.146;2023-04-01T09:10:50;11.90;1.00
780;DHT22;373;49.342;8.146;2023-04-01T09:14:06;12.00;1.00
780;DHT22;373;49.342;8.146;2023-04-01T09:19:53;12.10;1.00
780;DHT22;373;49.342;8.146;2023-04-01T09:22:48;12.00;1.00
780;DHT22;373;49.342;8.146;2023-04-01T09:25:30;11.90;1.00
780;DHT22;373;49.342;8.146;2023-04-01T09:28:08;12.00;1.00
780;DHT22;373;49.342;8.146;2023-04-01T09:30:54;12.00;1.00
780;DHT22;373;49.342;8.146;2023-04-01T09:34:03;12.00;1.00
780;DHT22;373;49.342;8.146;2023-04-01T09:36:57;12.20;1.00
780;DHT22;373;49.342;8.146;2023-04-01T09:39:38;12.30;1.00
780;DHT22;373;49.342;8.146;2023-04-01T09:42:31;12.40;1.00
780;DHT22;373;49.342;8.146;2023-04-01T09:45:26;12.30;1.00
780;DHT22;373;49.342;8.146;2023-04-01T09:48:09;12.20;1.00
780;DHT22;373;49.342;8.146;2023-04-01T09:50:49;12.40;1.00
780;DHT22;373;49.342;8.146;2023-04-01T09:53:31;12.30;1.00
780;DHT22;373;49.342;8.146;2023-04-01T09:56:52;12.50;1.00
780;DHT22;373;49.342;8.146;2023-04-01T09:59:57;12.50;1.00
780;DHT22;373;49.342;8.146;2023-04-01T10:03:17;12.50;1.00
780;DHT22;373;49.342;8.146;2023-04-01T10:06:17;12.70;1.00
780;DHT22;373;49.342;8.146;2023-04-01T10:09:23;12.80;99.90
780;DHT22;373;49.342;8.146;2023-04-01T10:12:23;12.70;1.00
780;DHT22;373;49.342;8.146;2023-04-01T10:15:18;13.00;1.00
780;DHT22;373;49.342;8.146;2023-04-01T10:18:10;12.90;1.00
780;DHT22;373;49.342;8.146;2023-04-01T10:20:59;13.00;1.00
780;DHT22;373;49.342;8.146;2023-04-01T10:23:57;13.10;1.00
780;DHT22;373;49.342;8.146;2023-04-01T10:30:49;13.20;1.00
780;DHT22;373;49.342;8.146;2023-04-01T10:33:44;13.10;1.00
780;DHT22;373;49.342;8.146;2023-04-01T10:39:33;12.80;1.00
780;DHT22;373;49.342;8.146;2023-04-01T10:42:35;12.70;1.00
780;DHT22;373;49.342;8.146;2023-04-01T10:48:58;12.90;1.00
780;DHT22;373;49.342;8.146;2023-04-01T10:55:25;13.20;1.00
780;DHT22;373;49.342;8.146;2023-04-01T10:58:57;13.30;1.00
780;DHT22;373;49.342;8.146;2023-04-01T11:02:20;13.10;1.00
780;DHT22;373;49.342;8.146;2023-04-01T11:09:00;13.30;1.00
780;DHT22;373;49.342;8.146;2023-04-01T11:12:08;13.10;1.00
780;DHT22;373;49.342;8.146;2023-04-01T11:21:03;13.10;99.50
780;DHT22;373;49.342;8.146;2023-04-01T11:24:02;13.20;1.00
780;DHT22;373;49.342;8.146;2023-04-01T11:26:52;13.40;73.10
780;DHT22;373;49.342;8.146;2023-04-01T11:29:56;13.30;1.00
780;DHT22;373;49.342;8.146;2023-04-01T11:32:42;13.50;1.00
780;DHT22;373;49.342;8.146;2023-04-01T11:38:19;14.10;33.50
780;DHT22;373;49.342;8.146;2023-04-01T11:40:55;13.70;99.90
780;DHT22;373;49.342;8.146;2023-04-01T11:43:49;13.90;1.00
780;DHT22;373;49.342;8.146;2023-04-01T11:46:29;14.10;99.90
780;DHT22;373;49.342;8.146;2023-04-01T11:49:07;13.90;44.30
780;DHT22;373;49.342;8.146;2023-04-01T11:52:16;14.10;1.00
780;DHT22;373;49.342;8.146;2023-04-01T11:55:11;14.00;1.00
780;DHT22;373;49.342;8.146;2023-04-01T11:58:08;14.00;1.00
780;DHT22;373;49.342;8.146;2023-04-01T12:01:02;13.60;99.90
780;DHT22;373;49.342;8.146;2023-04-01T12:03:47;13.60;99.90
780;DHT22;373;49.342;8.146;2023-04-01T12:06:23;13.70;99.90
780;DHT22;373;49.342;8.146;2023-04-01T12:09:00;13.40;99.90
780;DHT22;373;49.342;8.146;2023-04-01T12:11:33;13.60;1.00
780;DHT22;373;49.342;8.146;2023-04-01T12:14:09;13.70;99.90
780;DHT22;373;49.342;8.146;2023-04-01T12:16:54;13.90;1.00
780;DHT22;373;49.342;8.146;2023-04-01T12:19:32;14.00;1.00
780;DHT22;373;49.342;8.146;2023-04-01T12:22:23;13.90;1.00
780;DHT22;373;49.342;8.146;2023-04-01T12:25:02;13.90;99.90
780;DHT22;373;49.342;8.146;2023-04-01T12:27:45;14.20;1.00
780;DHT22;373;49.342;8.146;2023-04-01T12:30:34;14.40;1.00
780;DHT22;373;49.342;8.146;2023-04-01T12:33:29;14.60;1.00
780;DHT22;373;49.342;8.146;2023-04-01T12:36:11;14.70;99.90
780;DHT22;373;49.342;8.146;2023-04-01T12:38:48;14.80;1.00
780;DHT22;373;49.342;8.146;2023-04-01T12:41:26;14.50;99.90
780;DHT22;373;49.342;8.146;2023-04-01T12:44:11;14.70;99.90
780;DHT22;373;49.342;8.146;2023-04-01T12:47:00;14.50;1.00
780;DHT22;373;49.342;8.146;2023-04-01T12:49:51;14.20;99.90
780;DHT22;373;49.342;8.146;2023-04-01T12:52:28;14.10;99.90
780;DHT22;373;49.342;8.146;2023-04-01T12:55:33;14.20;99.90
780;DHT22;373;49.342;8.146;2023-04-01T12:58:28;14.10;99.90
780;DHT22;373;49.342;8.146;2023-04-01T13:04:31;14.10;1.00
780;DHT22;373;49.342;8.146;2023-04-01T13:10:07;13.60;99.90
780;DHT22;373;49.342;8.146;2023-04-01T13:12:52;13.70;99.90
780;DHT22;373;49.342;8.146;2023-04-01T13:15:28;13.90;1.00
780;DHT22;373;49.342;8.146;2023-04-01T13:18:04;13.60;1.00
780;DHT22;373;49.342;8.146;2023-04-01T13:20:43;13.40;1.00
780;DHT22;373;49.342;8.146;2023-04-01T13:23:20;13.70;99.90
780;DHT22;373;49.342;8.146;2023-04-01T13:26:00;13.60;99.90
780;DHT22;373;49.342;8.146;2023-04-01T13:28:34;13.50;99.90
780;DHT22;373;49.342;8.146;2023-04-01T13:31:09;13.60;8.40
780;DHT22;373;49.342;8.146;2023-04-01T13:33:45;13.70;99.90
780;DHT22;373;49.342;8.146;2023-04-01T13:36:22;13.70;1.00
780;DHT22;373;49.342;8.146;2023-04-01T13:41:55;14.30;39.00
780;DHT22;373;49.342;8.146;2023-04-01T13:44:31;14.40;99.90
780;DHT22;373;49.342;8.146;2023-04-01T13:50:16;14.30;1.00
780;DHT22;373;49.342;8.146;2023-04-01T13:53:06;14.70;1.00
780;DHT22;373;49.342;8.146;2023-04-01T13:56:01;14.90;99.90
780;DHT22;373;49.342;8.146;2023-04-01T13:58:55;15.20;32.20
780;DHT22;373;49.342;8.146;2023-04-01T14:01:30;15.70;1.00
780;DHT22;373;49.342;8.146;2023-04-01T14:04:23;15.70;99.90
780;DHT22;373;49.342;8.146;2023-04-01T14:07:00;15.20;99.90
780;DHT22;373;49.342;8.146;2023-04-01T14:09:59;15.00;99.90
780;DHT22;373;49.342;8.146;2023-04-01T14:12:31;14.20;1.00
780;DHT22;373;49.342;8.146;2023-04-01T14:15:20;14.20;99.90
780;DHT22;373;49.342;8.146;2023-04-01T14:18:01;14.00;99.90
780;DHT22;373;49.342;8.146;2023-04-01T14:20:38;14.00;99.90
780;DHT22;373;49.342;8.146;2023-04-01T14:23:17;13.80;99.90
780;DHT22;373;49.342;8.146;2023-04-01T14:26:00;13.90;1.00
780;DHT22;373;49.342;8.146;2023-04-01T14:28:32;14.20;99.90
780;DHT22;373;49.342;8.146;2023-04-01T14:31:17;14.30;99.90
780;DHT22;373;49.342;8.146;2023-04-01T14:33:57;13.90;1.00
780;DHT22;373;49.342;8.146;2023-04-01T14:40:05;13.70;1.00
780;DHT22;373;49.342;8.146;2023-04-01T14:42:56;13.60;1.00
780;DHT22;373;49.342;8.146;2023-04-01T14:45:39;13.60;99.90
780;DHT22;373;49.342;8.146;2023-04-01T14:48:22;13.80;99.90
780;DHT22;373;49.342;8.146;2023-04-01T14:50:52;13.80;1.00
780;DHT22;373;49.342;8.146;2023-04-01T14:53:27;13.80;56.90
780;DHT22;373;49.342;8.146;2023-04-01T14:55:56;14.00;99.90
780;DHT22;373;49.342;8.146;2023-04-01T14:58:25;13.90;1.00
780;DHT22;373;49.342;8.146;2023-04-01T15:01:00;14.20;1.00
780;DHT22;373;49.342;8.146;2023-04-01T15:03:39;14.40;1.00
780;DHT22;373;49.342;8.146;2023-04-01T15:06:30;14.40;99.90
780;DHT22;373;49.342;8.146;2023-04-01T15:09:06;14.30;99.90
780;DHT22;373;49.342;8.146;2023-04-01T15:11:48;14.10;1.00
780;DHT22;373;49.342;8.146;2023-04-01T15:14:34;14.10;1.00
780;DHT22;373;49.342;8.146;2023-04-01T15:17:16;14.10;16.50
780;DHT22;373;49.342;8.146;2023-04-01T15:20:01;14.10;99.90
780;DHT22;373;49.342;8.146;2023-04-01T15:22:43;14.00;99.90
780;DHT22;373;49.342;8.146;2023-04-01T15:25:31;13.90;1.00
780;DHT22;373;49.342;8.146;2023-04-01T15:28:06;13.70;99.90
780;DHT22;373;49.342;8.146;2023-04-01T15:30:46;14.00;14.00
780;DHT22;373;49.342;8.146;2023-04-01T15:33:43;14.10;1.00
780;DHT22;373;49.342;8.146;2023-04-01T15:36:25;14.00;46.50
780;DHT22;373;49.342;8.146;2023-04-01T15:39:05;14.00;99.90
780;DHT22;373;49.342;8.146;2023-04-01T15:41:43;13.80;99.90
780;DHT22;373;49.342;8.146;2023-04-01T15:44:39;13.60;43.10
780;DHT22;373;49.342;8.146;2023-04-01T15:47:31;13.20;33.60
780;DHT22;373;49.342;8.146;2023-04-01T15:50:20;13.20;1.00
780;DHT22;373;49.342;8.146;2023-04-01T15:53:02;12.90;99.90
780;DHT22;373;49.342;8.146;2023-04-01T15:55:37;12.90;99.90
780;DHT22;373;49.342;8.146;2023-04-01T15:58:30;13.00;1.00
780;DHT22;373;49.342;8.146;2023-04-01T16:01:08;13.20;1.00
780;DHT22;373;49.342;8.146;2023-04-01T16:03:43;13.40;1.00
780;DHT22;373;49.342;8.146;2023-04-01T16:06:31;13.60;99.90
780;DHT22;373;49.342;8.146;2023-04-01T16:09:17;13.30;99.90
780;DHT22;373;49.342;8.146;2023-04-01T16:11:52;13.40;99.90
780;DHT22;373;49.342;8.146;2023-04-01T16:14:33;13.40;1.00
780;DHT22;373;49.342;8.146;2023-04-01T16:17:14;13.40;1.00
780;DHT22;373;49.342;8.146;2023-04-01T16:19:51;13.70;1.00
780;DHT22;373;49.342;8.146;2023-04-01T16:22:23;13.50;1.00
780;DHT22;373;49.342;8.146;2023-04-01T16:24:59;13.40;1.00
780;DHT22;373;49.342;8.146;2023-04-01T16:27:35;13.30;1.00
780;DHT22;373;49.342;8.146;2023-04-01T16:30:23;13.50;1.00
780;DHT22;373;49.342;8.146;2023-04-01T16:32:57;13.20;1.00
780;DHT22;373;49.342;8.146;2023-04-01T16:35:40;12.80;1.00
780;DHT22;373;49.342;8.146;2023-04-01T16:38:15;12.80;99.90
780;DHT22;373;49.342;8.146;2023-04-01T16:40:50;12.80;99.90
780;DHT22;373;49.342;8.146;2023-04-01T16:43:25;12.80;99.90
780;DHT22;373;49.342;8.146;2023-04-01T16:46:07;12.90;99.90
780;DHT22;373;49.342;8.146;2023-04-01T16:48:52;12.90;8.40
780;DHT22;373;49.342;8.146;2023-04-01T16:51:30;12.80;99.90
780;DHT22;373;49.342;8.146;2023-04-01T16:54:04;12.80;66.70
780;DHT22;373;49.342;8.146;2023-04-01T16:56:41;12.90;99.90
780;DHT22;373;49.342;8.146;2023-04-01T16:59:16;13.10;99.90
780;DHT22;373;49.342;8.146;2023-04-01T17:01:51;13.00;1.00
780;DHT22;373;49.342;8.146;2023-04-01T17:04:30;12.80;1.00
780;DHT22;373;49.342;8.146;2023-04-01T17:07:06;12.70;93.40
780;DHT22;373;49.342;8.146;2023-04-01T17:09:47;12.60;99.90
780;DHT22;373;49.342;8.146;2023-04-01T17:12:24;12.70;1.00
780;DHT22;373;49.342;8.146;2023-04-01T17:15:01;12.60;2.10
780;DHT22;373;49.342;8.146;2023-04-01T17:17:42;12.50;1.00
780;DHT22;373;49.342;8.146;2023-04-01T17:20:18;12.50;1.00
780;DHT22;373;49.342;8.146;2023-04-01T17:22:55;12.30;1.00
780;DHT22;373;49.342;8.146;2023-04-01T17:25:41;12.20;1.00
780;DHT22;373;49.342;8.146;2023-04-01T17:28:23;12.10;1.00
780;DHT22;373;49.342;8.146;2023-04-01T17:30:58;12.10;1.00
780;DHT22;373;49.342;8.146;2023-04-01T17:33:47;12.10;19.60
780;DHT22;373;49.342;8.146;2023-04-01T17:36:30;11.90;70.70
780;DHT22;373;49.342;8.146;2023-04-01T17:39:18;12.00;1.00
780;DHT22;373;49.342;8.146;2023-04-01T17:41:54;11.90;1.00
780;DHT22;373;49.342;8.146;2023-04-01T17:44:37;12.00;99.90
780;DHT22;373;49.342;8.146;2023-04-01T17:47:28;11.80;1.00
780;DHT22;373;49.342;8.146;2023-04-01T17:50:02;11.70;1.00
780;DHT22;373;49.342;8.146;2023-04-01T17:52:39;11.60;99.00
780;DHT22;373;49.342;8.146;2023-04-01T17:55:43;11.70;1.00
780;DHT22;373;49.342;8.146;2023-04-01T17:58:18;11.60;63.50
780;DHT22;373;49.342;8.146;2023-04-01T18:01:10;11.60;1.00
780;DHT22;373;49.342;8.146;2023-04-01T18:04:17;11.50;99.90
780;DHT22;373;49.342;8.146;2023-04-01T18:07:02;11.40;1.00
780;DHT22;373;49.342;8.146;2023-04-01T18:09:39;11.30;1.00
780;DHT22;373;49.342;8.146;2023-04-01T18:12:17;11.30;1.30
780;DHT22;373;49.342;8.146;2023-04-01T18:15:05;11.30;1.00
780;DHT22;373;49.342;8.146;2023-04-01T18:17:46;11.30;1.00
780;DHT22;373;49.342;8.146;2023-04-01T18:20:31;11.30;1.00
780;DHT22;373;49.342;8.146;2023-04-01T18:23:03;11.30;1.00
780;DHT22;373;49.342;8.146;2023-04-01T18:25:34;11.30;99.90
780;DHT22;373;49.342;8.146;2023-04-01T18:28:22;11.30;97.30
780;DHT22;373;49.342;8.146;2023-04-01T18:30:55;11.40;1.00
780;DHT22;373;49.342;8.146;2023-04-01T18:33:29;11.40;1.00
780;DHT22;373;49.342;8.146;2023-04-01T18:36:08;11.50;1.00
780;DHT22;373;49.342;8.146;2023-04-01T18:38:39;11.60;1.00
780;DHT22;373;49.342;8.146;2023-04-01T18:41:13;11.50;99.90
780;DHT22;373;49.342;8.146;2023-04-01T18:43:48;11.50;1.00
780;DHT22;373;49.342;8.146;2023-04-01T18:46:26;11.50;1.00
780;DHT22;373;49.342;8.146;2023-04-01T18:49:05;11.50;99.90
780;DHT22;373;49.342;8.146;2023-04-01T18:51:39;11.40;1.00
780;DHT22;373;49.342;8.146;2023-04-01T18:54:12;11.30;1.00
780;DHT22;373;49.342;8.146;2023-04-01T18:56:44;11.30;36.90
780;DHT22;373;49.342;8.146;2023-04-01T18:59:16;11.40;1.00
780;DHT22;373;49.342;8.146;2023-04-01T19:01:52;11.50;1.00
780;DHT22;373;49.342;8.146;2023-04-01T19:04:31;11.40;1.00